Heathsville, Illinois
Current Conditions -  °F | °C
As of 8:35 PM on Friday 28 Nov 2014 (Local Time) from KRSV Reporting Station
Clear Clear  
Wind Chill: 29°   Ceiling: Unl
Heat Index: 36°   Visibility: 10mi
Dew Point: 29°   Wind: 9mph
Humidity: 76%   Direction: 170°S
Pressure: 30.04"   Gusts: NA
Location:  38.904°N, 87.665°W
Report Text: KRSV 290235Z AUTO 17008KT 10SM CLR 02/M02 A3004 RMK AO2 T00211018
Loading
Personal Weather Stations






























Interactive Weather Map New forecast layout! Learn more

10-Day Weather Forecast

Advertisements
Track Severe Weather on mobile